Time;durP1;ratioP1;P1;durP2;ratioP2;P2;SDS_P1;SDS_P2;PMS_P1;PMS_P2;Temp;Humidity;BMP_temperature;BMP_pressure;BME280_temperature;BME280_humidity;BME280_pressure;Samples;Min_cycle;Max_cycle;Signal;HPM_P1;HPM_P2
2021/12/17 00:00:17;;;;;;;25.10;10.30;;;;;;;4.76;79.78;100008.13;103134;1320;97948;-70
2021/12/17 00:03:12;;;;;;;23.80;9.80;;;;;;;4.74;79.82;100000.45;103042;1316;97957;-69
2021/12/17 00:08:20;;;;;;;26.60;11.00;;;;;;;4.72;79.71;100000.17;103081;1317;97898;-70
2021/12/17 00:10:50;;;;;;;24.20;10.10;;;;;;;4.71;79.79;99991.25;103082;1316;105685;-70
2021/12/17 00:13:20;;;;;;;23.90;8.80;;;;;;;4.71;79.57;99998.63;103104;1315;97837;-69
2021/12/17 00:15:48;;;;;;;25.80;9.10;;;;;;;4.70;79.72;100000.23;103166;1316;97938;-71
2021/12/17 00:18:25;;;;;;;22.70;8.50;;;;;;;4.69;79.64;100003.45;103045;1316;111254;-69
2021/12/17 00:48:36;;;;;;;22.70;8.80;;;;;;;4.56;79.25;100001.59;103068;1315;96458;-70
2021/12/17 00:53:41;;;;;;;21.30;8.40;;;;;;;4.55;79.19;99996.89;102995;1315;97882;-69
2021/12/17 00:56:09;;;;;;;20.80;7.30;;;;;;;4.55;79.25;99998.98;103043;1316;97957;-70
2021/12/17 00:58:36;;;;;;;19.60;7.50;;;;;;;4.55;79.15;99998.64;103095;1316;111444;-70
2021/12/17 01:01:04;;;;;;;22.70;8.50;;;;;;;4.53;79.22;100006.77;103142;1315;97899;-70
2021/12/17 01:03:33;;;;;;;21.90;7.30;;;;;;;4.53;79.15;100006.08;103097;1320;107852;-71
2021/12/17 01:06:05;;;;;;;18.70;7.90;;;;;;;4.53;79.07;99990.61;103154;1319;97877;-70
2021/12/17 01:08:33;;;;;;;22.60;8.50;;;;;;;4.53;78.99;99989.56;103111;1316;97893;-70
2021/12/17 01:11:01;;;;;;;26.90;9.00;;;;;;;4.54;78.89;99983.23;102976;1315;111860;-69
2021/12/17 01:13:31;;;;;;;24.00;9.10;;;;;;;4.54;78.94;99977.42;103041;1316;97983;-69
2021/12/17 01:16:02;;;;;;;22.30;8.10;;;;;;;4.53;78.85;99975.19;103142;1317;106147;-69
2021/12/17 01:19:21;;;;;;;24.50;8.70;;;;;;;4.53;78.99;99967.79;103055;1315;97930;-69
2021/12/17 01:24:38;;;;;;;23.90;8.70;;;;;;;4.50;78.88;99974.54;102975;1316;111540;-69
2021/12/17 01:35:28;;;;;;;26.30;9.70;;;;;;;4.46;78.80;99984.34;102901;1316;97878;-70
2021/12/17 01:43:48;;;;;;;26.50;9.60;;;;;;;4.39;78.84;99980.02;102943;1317;108235;-70
2021/12/17 01:46:21;;;;;;;25.50;9.20;;;;;;;4.40;78.77;99974.88;103012;1316;97999;-69
2021/12/17 02:00:45;;;;;;;25.50;8.70;;;;;;;4.34;78.47;99964.71;102994;1316;97975;-71
2021/12/17 02:03:15;;;;;;;28.90;10.90;;;;;;;4.32;78.60;99966.20;102984;1316;97989;-70
2021/12/17 02:05:44;;;;;;;29.20;9.10;;;;;;;4.30;78.48;99965.20;102954;1316;112769;-71
2021/12/17 02:08:14;;;;;;;29.40;9.50;;;;;;;4.28;78.46;99961.73;102999;1317;95833;-69
2021/12/17 02:30:44;;;;;;;30.70;9.30;;;;;;;4.22;78.31;99956.16;102993;1316;98707;-70
2021/12/17 02:32:41;;;;;;;28.50;9.40;;;;;;;4.20;78.11;99954.64;102974;1316;111965;-70
2021/12/17 02:35:30;;;;;;;26.90;7.70;;;;;;;4.19;78.29;99957.48;103058;1316;97998;-70
2021/12/17 02:38:02;;;;;;;31.30;8.50;;;;;;;4.16;78.13;99947.38;103096;1315;107923;-69
2021/12/17 02:45:32;;;;;;;22.20;7.20;;;;;;;4.14;78.00;99946.92;103083;1316;112069;-69
2021/12/17 02:48:02;;;;;;;20.80;7.00;;;;;;;4.14;78.18;99948.52;103037;1317;96468;-70
2021/12/17 02:50:36;;;;;;;25.10;8.40;;;;;;;4.12;78.10;99946.98;103119;1316;107977;-69
2021/12/17 02:53:10;;;;;;;26.00;7.50;;;;;;;4.12;78.04;99954.36;102997;1317;97884;-70
2021/12/17 02:55:49;;;;;;;22.70;8.60;;;;;;;4.13;78.18;99956.60;103092;1315;97881;-69
2021/12/17 02:58:19;;;;;;;25.00;8.60;;;;;;;4.13;78.12;99959.23;102891;1316;112342;-70
2021/12/17 03:00:47;;;;;;;23.70;8.20;;;;;;;4.13;77.93;99954.67;103048;1319;98069;-69
2021/12/17 03:03:20;;;;;;;27.20;9.70;;;;;;;4.13;78.05;99950.46;103142;1316;107588;-71
2021/12/17 03:05:51;;;;;;;25.70;8.60;;;;;;;4.13;78.14;99947.30;103094;1316;97892;-70
2021/12/17 03:08:21;;;;;;;27.00;9.00;;;;;;;4.13;78.19;99947.48;103105;1316;97899;-70
2021/12/17 03:10:51;;;;;;;23.30;8.60;;;;;;;4.11;77.96;99942.80;103110;1316;111435;-70
2021/12/17 03:13:24;;;;;;;26.60;8.80;;;;;;;4.10;78.02;99943.88;103081;1316;97852;-71
2021/12/17 03:23:52;;;;;;;22.80;7.90;;;;;;;4.08;77.91;99948.16;102954;1315;110962;-69
2021/12/17 03:26:24;;;;;;;24.80;9.30;;;;;;;4.09;77.99;99943.22;103016;1316;97957;-69
2021/12/17 03:28:55;;;;;;;21.20;7.60;;;;;;;4.08;78.06;99942.39;103019;1315;107919;-69
2021/12/17 03:31:27;;;;;;;;;;;;;;;4.07;77.93;99947.15;102970;1316;97892;-69
2021/12/17 03:34:11;;;;;;;21.20;7.90;;;;;;;4.04;77.97;99950.59;102995;1316;96364;-69
2021/12/17 03:36:42;;;;;;;24.00;8.90;;;;;;;4.02;77.84;99949.39;103010;1316;112076;-69
2021/12/17 03:39:10;;;;;;;21.10;7.40;;;;;;;4.00;77.94;99950.52;103023;1317;98044;-68
2021/12/17 03:41:48;;;;;;;19.40;6.70;;;;;;;3.98;77.80;99951.63;103037;1316;107884;-69
2021/12/17 03:44:19;;;;;;;20.10;6.90;;;;;;;3.98;77.74;99950.59;103070;1315;96448;-70
2021/12/17 03:46:50;;;;;;;19.70;8.00;;;;;;;3.97;77.88;99947.64;102952;1318;98005;-70
2021/12/17 03:49:22;;;;;;;22.20;7.40;;;;;;;3.96;77.80;99945.20;103005;1316;111152;-70
2021/12/17 03:52:04;;;;;;;18.40;6.60;;;;;;;3.97;77.68;99944.47;103026;1317;98002;-69
2021/12/17 03:54:34;;;;;;;19.50;7.00;;;;;;;3.95;77.77;99940.16;102981;1317;107783;-69
2021/12/17 03:57:05;;;;;;;23.30;7.30;;;;;;;3.94;77.67;99941.23;103047;1316;97757;-70
2021/12/17 03:59:34;;;;;;;20.20;7.00;;;;;;;3.93;77.58;99935.81;102849;1316;95958;-69
2021/12/17 04:02:02;;;;;;;20.10;7.80;;;;;;;3.93;77.80;99932.31;103006;1316;112402;-70
2021/12/17 04:04:30;;;;;;;24.50;7.70;;;;;;;3.94;77.63;99931.40;103064;1319;97937;-70
2021/12/17 04:07:01;;;;;;;21.80;6.80;;;;;;;3.94;77.54;99929.98;102997;1316;107855;-69
2021/12/17 04:09:30;;;;;;;20.90;7.40;;;;;;;3.95;77.58;99932.42;103005;1315;98537;-70
2021/12/17 04:12:06;;;;;;;22.30;7.50;;;;;;;3.95;77.75;99930.13;102915;1315;97915;-70
2021/12/17 04:14:44;;;;;;;25.60;8.40;;;;;;;3.94;77.56;99927.53;102969;1316;111566;-71
2021/12/17 04:17:21;;;;;;;22.50;7.70;;;;;;;3.95;77.51;99919.45;103020;1315;97989;-71
2021/12/17 04:19:52;;;;;;;25.80;8.00;;;;;;;3.94;77.60;99917.89;102992;1315;107812;-70
2021/12/17 04:22:20;;;;;;;22.30;6.80;;;;;;;3.93;77.54;99922.83;103018;1317;97889;-71
2021/12/17 04:24:47;;;;;;;23.40;7.40;;;;;;;3.92;77.62;99918.29;103050;1316;97951;-70
2021/12/17 04:27:15;;;;;;;22.00;6.60;;;;;;;3.93;77.66;99922.30;103022;1315;112386;-69
2021/12/17 04:29:43;;;;;;;19.50;7.50;;;;;;;3.93;77.51;99914.41;103011;1316;97625;-71
2021/12/17 04:32:12;;;;;;;24.50;7.80;;;;;;;3.94;77.43;99911.92;103110;1316;107946;-70
2021/12/17 04:34:42;;;;;;;22.30;7.20;;;;;;;3.94;77.42;99913.31;103136;1315;98014;-71
2021/12/17 04:37:10;;;;;;;24.40;7.80;;;;;;;3.94;77.57;99909.98;103108;1316;97862;-72
2021/12/17 04:39:38;;;;;;;24.50;6.70;;;;;;;3.93;77.44;99913.72;103086;1316;111479;-70
2021/12/17 04:42:19;;;;;;;22.00;6.60;;;;;;;3.91;77.46;99909.02;103065;1316;95926;-71
2021/12/17 04:44:50;;;;;;;20.50;6.40;;;;;;;3.89;77.42;99902.95;103099;1315;108439;-68
2021/12/17 04:58:02;;;;;;;26.00;7.00;;;;;;;3.85;77.33;99903.77;103148;1320;108896;-69
2021/12/17 05:00:31;;;;;;;22.70;7.60;;;;;;;3.85;77.36;99900.45;103205;1316;96428;-70
2021/12/17 05:03:01;;;;;;;25.00;8.50;;;;;;;3.85;77.63;99903.79;103182;1319;97858;-70
2021/12/17 05:05:32;;;;;;;25.50;8.40;;;;;;;3.85;77.07;99906.40;103185;1316;111513;-70
2021/12/17 05:08:08;;;;;;;24.60;7.60;;;;;;;3.84;77.24;99905.57;103183;1316;95194;-70
2021/12/17 05:18:54;;;;;;;25.00;6.80;;;;;;;3.83;77.30;99905.77;103057;1315;111070;-70
2021/12/17 05:21:26;;;;;;;27.20;7.70;;;;;;;3.83;77.16;99908.23;103034;1315;98008;-71
2021/12/17 05:23:54;;;;;;;25.60;8.00;;;;;;;3.82;77.32;99910.38;103051;1316;107861;-70
2021/12/17 05:26:24;;;;;;;22.80;6.10;;;;;;;3.80;77.31;99913.08;103095;1316;98101;-70
2021/12/17 05:28:55;;;;;;;23.70;6.80;;;;;;;3.79;77.27;99910.48;103138;1315;98625;-69
2021/12/17 05:31:24;;;;;;;22.20;7.20;;;;;;;3.76;77.13;99909.32;103050;1316;111443;-69
2021/12/17 05:33:56;;;;;;;24.60;8.00;;;;;;;3.76;77.30;99909.69;103036;1315;95276;-70
2021/12/17 05:36:24;;;;;;;25.00;8.00;;;;;;;3.74;77.42;99910.24;103044;1316;107809;-70
2021/12/17 05:38:52;;;;;;;29.30;7.70;;;;;;;3.73;77.07;99909.41;103067;1316;95441;-70
2021/12/17 05:41:21;;;;;;;24.70;7.70;;;;;;;3.72;77.11;99907.51;103081;1316;95975;-70
2021/12/17 05:43:56;;;;;;;35.20;8.50;;;;;;;3.71;77.10;99910.00;103104;1316;111051;-71
2021/12/17 05:46:49;;;;;;;25.90;7.10;;;;;;;3.69;76.99;99909.86;103083;1316;97909;-72
2021/12/17 05:49:25;;;;;;;21.80;6.10;;;;;;;3.68;77.16;99904.48;103042;1315;107838;-73
2021/12/17 05:51:55;;;;;;;20.10;5.80;;;;;;;3.67;77.00;99903.78;103049;1315;97924;-69
2021/12/17 05:54:23;;;;;;;25.40;6.40;;;;;;;3.67;77.14;99903.64;103113;1316;97957;-69
2021/12/17 05:56:52;;;;;;;19.80;5.50;;;;;;;3.66;76.93;99901.58;103189;1316;111594;-69
2021/12/17 05:59:20;;;;;;;27.30;7.80;;;;;;;3.66;76.92;99898.95;103109;1317;97870;-71
2021/12/17 06:01:48;;;;;;;21.20;6.10;;;;;;;3.65;77.02;99899.66;103114;1317;107700;-74
2021/12/17 06:04:16;;;;;;;25.50;6.60;;;;;;;3.65;76.97;99900.89;103112;1317;97750;-73
2021/12/17 06:06:49;;;;;;;21.80;6.20;;;;;;;3.65;76.99;99903.02;103105;1320;95526;-74
2021/12/17 06:09:17;;;;;;;23.40;6.30;;;;;;;3.66;77.17;99908.95;103115;1317;112201;-74
2021/12/17 06:11:47;;;;;;;18.00;5.50;;;;;;;3.66;77.07;99907.19;103137;1310;95294;-76
2021/12/17 06:14:15;;;;;;;18.90;6.40;;;;;;;3.66;76.88;99909.64;103084;1317;107947;-75
2021/12/17 06:16:43;;;;;;;24.90;7.10;;;;;;;3.66;76.82;99912.62;103093;1316;98026;-75
2021/12/17 06:19:12;;;;;;;19.40;6.40;;;;;;;3.67;76.97;99914.16;103087;1315;96074;-75
2021/12/17 06:21:41;;;;;;;19.90;5.70;;;;;;;3.68;76.94;99918.51;103118;1316;111529;-76
2021/12/17 06:24:09;;;;;;;20.50;5.70;;;;;;;3.69;76.90;99915.66;103181;1317;97644;-76
2021/12/17 06:26:38;;;;;;;18.90;5.10;;;;;;;3.69;76.96;99916.02;103107;1319;107848;-74
2021/12/17 06:29:06;;;;;;;20.60;5.70;;;;;;;3.69;77.06;99915.48;103581;1316;97956;-74
2021/12/17 06:31:34;;;;;;;23.50;6.50;;;;;;;3.69;76.93;99918.48;103128;1316;96028;-74
2021/12/17 06:34:02;;;;;;;22.80;6.20;;;;;;;3.66;77.00;99916.45;103142;1319;111495;-75
2021/12/17 06:36:30;;;;;;;21.40;5.90;;;;;;;3.66;76.80;99921.40;103129;1319;95219;-75
2021/12/17 06:38:57;;;;;;;20.30;5.30;;;;;;;3.65;76.66;99923.02;103136;1316;107937;-77
2021/12/17 06:41:25;;;;;;;22.00;5.70;;;;;;;3.63;76.79;99926.92;103149;1317;97931;-74
2021/12/17 06:43:56;;;;;;;26.20;6.60;;;;;;;3.62;76.78;99929.59;103179;1317;97992;-72
2021/12/17 06:46:51;;;;;;;26.50;6.90;;;;;;;3.61;76.85;99930.48;103188;1313;112480;-75
2021/12/17 06:49:27;;;;;;;24.70;6.10;;;;;;;3.61;76.90;99933.14;103239;1315;98108;-74
2021/12/17 06:58:04;;;;;;;27.60;6.50;;;;;;;3.58;76.97;99927.41;103164;1317;95290;-75
2021/12/17 07:06:02;;;;;;;31.40;8.30;;;;;;;3.56;76.82;99929.92;103055;1316;107740;-72
2021/12/17 07:40:53;;;;;;;24.80;6.10;;;;;;;3.56;76.66;99929.05;103095;1316;111110;-75
2021/12/17 07:43:27;;;;;;;24.50;5.90;;;;;;;3.55;76.68;99933.10;103124;1317;96022;-75
2021/12/17 07:45:55;;;;;;;;;;;;;;;3.55;76.71;99931.52;103104;1316;107758;-75
2021/12/17 07:48:26;;;;;;;28.00;7.50;;;;;;;3.53;76.59;99934.39;103119;1316;97823;-74
2021/12/17 07:50:54;;;;;;;26.80;6.30;;;;;;;3.53;76.72;99939.64;103265;1317;97956;-76
2021/12/17 07:53:22;;;;;;;19.50;5.70;;;;;;;3.54;76.61;99943.30;103048;1316;110618;-76
2021/12/17 07:55:50;;;;;;;23.00;6.50;;;;;;;3.56;76.57;99939.77;103114;1317;97917;-76
2021/12/17 07:58:17;;;;;;;26.80;7.80;;;;;;;3.57;76.71;99944.45;103074;1315;107486;-74
2021/12/17 08:00:46;;;;;;;22.20;7.30;;;;;;;3.58;76.63;99950.55;103097;1315;97969;-74
2021/12/17 08:03:15;;;;;;;24.70;6.90;;;;;;;3.60;76.48;99947.70;103062;1316;95980;-74
2021/12/17 08:05:44;;;;;;;27.60;7.70;;;;;;;3.60;76.77;99946.12;103158;1319;111555;-76
2021/12/17 08:08:12;;;;;;;26.40;6.20;;;;;;;3.61;76.72;99941.19;103164;1315;97831;-75
2021/12/17 08:10:43;;;;;;;22.80;6.30;;;;;;;3.61;76.51;99940.83;103112;1317;106847;-75
2021/12/17 08:13:18;;;;;;;20.90;5.80;;;;;;;3.62;76.57;99941.15;103126;1316;97905;-76
2021/12/17 08:16:01;;;;;;;22.50;6.30;;;;;;;3.63;76.60;99936.92;103232;1315;95268;-75
2021/12/17 08:18:46;;;;;;;22.00;6.30;;;;;;;3.63;76.61;99943.94;103105;1316;111504;-76
2021/12/17 08:31:55;;;;;;;40.00;10.30;;;;;;;3.54;76.49;99949.79;103100;1314;112390;-75
2021/12/17 08:34:24;;;;;;;33.00;9.60;;;;;;;3.54;76.32;99948.39;103082;1317;97920;-75
2021/12/17 08:36:56;;;;;;;23.10;7.00;;;;;;;3.54;76.61;99948.57;103051;1316;107835;-74
2021/12/17 08:39:29;;;;;;;25.10;6.80;;;;;;;3.53;76.21;99949.81;103085;1315;98049;-74
2021/12/17 08:41:58;;;;;;;25.20;5.80;;;;;;;3.53;76.31;99951.23;103169;1315;99115;-75
2021/12/17 08:44:28;;;;;;;22.10;6.10;;;;;;;3.54;76.39;99955.42;103118;1315;111742;-75
2021/12/17 08:46:57;;;;;;;27.60;7.70;;;;;;;3.54;76.29;99954.02;103132;1316;97876;-75
2021/12/17 08:49:28;;;;;;;19.20;4.80;;;;;;;3.54;76.19;99956.64;103085;1316;108653;-75
2021/12/17 08:52:03;;;;;;;24.10;5.90;;;;;;;3.54;76.32;99956.28;103091;1316;97972;-75
2021/12/17 08:54:30;;;;;;;23.70;4.40;;;;;;;3.55;76.32;99955.21;102987;1315;97954;-74
2021/12/17 08:56:58;;;;;;;17.30;5.60;;;;;;;3.55;76.18;99953.80;102968;1315;111984;-74
2021/12/17 08:59:29;;;;;;;24.20;7.70;;;;;;;3.56;76.27;99959.91;103077;1315;97862;-75
2021/12/17 09:01:59;;;;;;;24.40;6.80;;;;;;;3.57;76.27;99951.98;103092;1314;107864;-74
2021/12/17 09:04:27;;;;;;;24.40;6.60;;;;;;;3.57;76.01;99958.48;103100;1317;97901;-72
2021/12/17 09:06:59;;;;;;;24.30;6.00;;;;;;;3.59;76.35;99949.14;103099;1316;97922;-73
2021/12/17 09:09:27;;;;;;;28.50;6.90;;;;;;;3.59;76.19;99944.39;103119;1319;111449;-73
2021/12/17 09:11:55;;;;;;;23.90;7.20;;;;;;;3.62;75.92;99937.66;103142;1319;98031;-75
2021/12/17 09:14:23;;;;;;;25.40;8.10;;;;;;;3.63;76.14;99945.15;102977;1315;107755;-74
2021/12/17 09:16:51;;;;;;;25.30;6.20;;;;;;;3.63;76.05;99953.58;103082;1316;97054;-74
2021/12/17 09:19:20;;;;;;;22.00;5.90;;;;;;;3.64;76.17;99954.09;103045;1316;97793;-74
2021/12/17 09:21:49;;;;;;;22.20;6.50;;;;;;;3.64;76.39;99953.54;103072;1315;111824;-74
2021/12/17 09:24:17;;;;;;;22.10;5.50;;;;;;;3.61;75.83;99953.81;103166;1315;98000;-74
2021/12/17 09:26:44;;;;;;;25.70;5.90;;;;;;;3.59;75.97;99956.48;103125;1315;108548;-79
2021/12/17 09:29:12;;;;;;;31.20;8.40;;;;;;;3.59;75.95;99948.44;103043;1315;97905;-78
2021/12/17 09:31:41;;;;;;;24.60;6.50;;;;;;;3.62;75.99;99943.79;103123;1316;96411;-74
2021/12/17 09:34:11;;;;;;;23.00;8.00;;;;;;;3.64;75.81;99947.42;103107;1316;111702;-75
2021/12/17 09:36:39;;;;;;;22.50;5.50;;;;;;;3.65;75.92;99946.34;103113;1316;97897;-74
2021/12/17 09:39:07;;;;;;;23.30;5.50;;;;;;;3.66;75.94;99948.06;103074;1317;107938;-74
2021/12/17 09:41:36;;;;;;;25.30;7.80;;;;;;;3.67;75.96;99946.80;103097;1315;97995;-73
2021/12/17 09:44:05;;;;;;;26.80;7.30;;;;;;;3.67;76.08;99956.23;103163;1316;98092;-76
2021/12/17 09:46:33;;;;;;;22.50;5.90;;;;;;;3.68;76.27;99959.37;103091;1316;111517;-75
2021/12/17 09:49:00;;;;;;;20.50;5.60;;;;;;;3.70;76.15;99960.20;103181;1315;96702;-75
2021/12/17 09:51:30;;;;;;;20.00;6.30;;;;;;;3.72;75.88;99953.85;103126;1316;107769;-75
2021/12/17 09:53:58;;;;;;;21.10;5.80;;;;;;;3.75;76.03;99949.00;103129;1312;98059;-75
2021/12/17 09:56:27;;;;;;;21.30;5.80;;;;;;;3.76;75.99;99948.98;103048;1319;98048;-78
2021/12/17 09:58:56;;;;;;;25.40;7.40;;;;;;;3.74;75.95;99946.05;103110;1315;111682;-74
2021/12/17 10:01:26;;;;;;;28.00;8.20;;;;;;;3.71;75.77;99939.98;103180;1317;97866;-74
2021/12/17 10:04:17;;;;;;;27.70;5.90;;;;;;;3.68;75.99;99939.21;103175;1315;107913;-75
2021/12/17 10:06:49;;;;;;;21.40;6.10;;;;;;;3.68;75.92;99936.77;103058;1322;98136;-73
2021/12/17 10:09:18;;;;;;;21.30;6.50;;;;;;;3.69;75.77;99932.00;103100;1316;96587;-75
2021/12/17 10:12:06;;;;;;;20.40;5.70;;;;;;;3.69;75.95;99930.95;103105;1317;111519;-74
2021/12/17 10:14:34;;;;;;;27.10;6.20;;;;;;;3.69;75.69;99931.12;103093;1317;97863;-75
2021/12/17 10:17:21;;;;;;;25.10;6.60;;;;;;;3.68;75.80;99930.95;103086;1315;108026;-74
2021/12/17 10:19:53;;;;;;;23.60;6.40;;;;;;;3.69;75.78;99925.84;103077;1316;97905;-74
2021/12/17 10:22:25;;;;;;;24.30;6.90;;;;;;;3.70;75.88;99914.59;103131;1316;98059;-73
2021/12/17 10:25:02;;;;;;;20.80;6.30;;;;;;;3.71;75.90;99911.91;103126;1319;111555;-74
2021/12/17 10:27:39;;;;;;;22.00;6.70;;;;;;;3.71;75.73;99909.45;103024;1318;98031;-76
2021/12/17 10:30:21;;;;;;;22.20;6.90;;;;;;;3.73;75.65;99902.58;103193;1316;108061;-75
2021/12/17 10:32:54;;;;;;;23.80;6.90;;;;;;;3.71;75.82;99904.55;103156;1315;97916;-78
2021/12/17 10:35:26;;;;;;;27.40;7.90;;;;;;;3.69;75.52;99895.66;103110;1316;99076;-72
2021/12/17 10:38:01;;;;;;;26.40;8.70;;;;;;;3.71;75.59;99894.04;102875;1318;111315;-74
2021/12/17 10:40:38;;;;;;;29.10;8.20;;;;;;;3.72;75.66;99887.53;103143;1320;96431;-74
2021/12/17 10:43:16;;;;;;;23.50;8.10;;;;;;;3.72;75.66;99886.45;103132;1317;107794;-75
2021/12/17 10:45:59;;;;;;;24.80;8.50;;;;;;;3.74;75.68;99888.16;102981;1316;162630;-74
2021/12/17 10:48:53;;;;;;;26.80;9.80;;;;;;;3.75;75.74;99882.52;102951;1319;98642;-77
2021/12/17 10:54:18;;;;;;;26.90;8.70;;;;;;;3.73;75.54;99881.70;103180;1316;97912;-76
2021/12/17 10:56:54;;;;;;;30.40;8.80;;;;;;;3.75;75.55;99882.52;103161;1316;108166;-74
2021/12/17 10:59:25;;;;;;;26.90;8.70;;;;;;;3.76;75.63;99877.75;103122;1316;96570;-74
2021/12/17 11:02:06;;;;;;;28.60;9.40;;;;;;;3.75;75.45;99880.58;103120;1316;99527;-76
2021/12/17 11:04:41;;;;;;;28.30;9.20;;;;;;;3.77;75.57;99874.56;103183;1317;110950;-75
2021/12/17 11:07:25;;;;;;;23.50;7.50;;;;;;;3.77;75.35;99878.42;103134;1316;98040;-76
2021/12/17 11:10:00;;;;;;;20.90;7.80;;;;;;;3.78;75.41;99874.54;103134;1315;107801;-76
2021/12/17 11:12:35;;;;;;;21.40;8.00;;;;;;;3.78;75.46;99872.08;103071;1316;97876;-75
2021/12/17 11:15:25;;;;;;;25.40;6.90;;;;;;;3.82;75.62;99870.71;103083;1316;97976;-74
2021/12/17 11:18:03;;;;;;;24.80;7.00;;;;;;;3.85;75.49;99860.27;103062;1319;109204;-73
2021/12/17 11:20:36;;;;;;;20.50;6.70;;;;;;;3.91;75.34;99865.34;103021;1318;96478;-73
2021/12/17 11:23:10;;;;;;;21.70;7.00;;;;;;;3.95;75.53;99861.52;103117;1319;106833;-74
2021/12/17 11:25:49;;;;;;;24.90;9.80;;;;;;;3.99;75.40;99859.66;103164;1319;97963;-76
2021/12/17 11:28:17;;;;;;;24.40;6.60;;;;;;;3.99;75.46;99856.66;103166;1317;98037;-75
2021/12/17 11:30:47;;;;;;;19.50;6.80;;;;;;;3.97;75.38;99858.98;103234;1316;110510;-74
2021/12/17 11:33:15;;;;;;;24.40;7.20;;;;;;;3.97;75.50;99856.90;103185;1315;97965;-75
2021/12/17 11:35:46;;;;;;;23.40;7.30;;;;;;;3.96;75.35;99857.12;103085;1316;107798;-75
2021/12/17 11:38:29;;;;;;;21.80;7.40;;;;;;;3.96;75.32;99850.96;103089;1315;98371;-74
2021/12/17 11:41:13;;;;;;;25.00;7.10;;;;;;;3.94;75.33;99851.55;103164;1316;97840;-74
2021/12/17 11:43:54;;;;;;;21.80;7.20;;;;;;;3.92;75.28;99858.30;103079;1316;111421;-73
2021/12/17 11:46:32;;;;;;;24.00;7.50;;;;;;;3.89;75.21;99852.76;103143;1316;98346;-75
2021/12/17 11:49:04;;;;;;;23.40;8.20;;;;;;;3.88;75.37;99855.77;103131;1316;108942;-74
2021/12/17 11:51:37;;;;;;;27.20;7.80;;;;;;;3.90;75.30;99855.02;103154;1315;98015;-73
2021/12/17 11:54:14;;;;;;;31.50;9.80;;;;;;;3.89;75.24;99851.88;103098;1316;97899;-74
2021/12/17 11:57:16;;;;;;;30.70;10.30;;;;;;;3.90;75.21;99853.80;103078;1316;111580;-74
2021/12/17 11:59:48;;;;;;;24.90;8.30;;;;;;;3.89;75.24;99855.21;103130;1316;97873;-75
2021/12/17 12:02:26;;;;;;;31.40;8.70;;;;;;;3.90;75.35;99855.73;103229;1320;107884;-71
2021/12/17 12:04:55;;;;;;;26.80;8.10;;;;;;;3.91;75.30;99853.07;103107;1316;98579;-70
2021/12/17 12:07:25;;;;;;;31.40;8.20;;;;;;;3.89;75.18;99856.98;103143;1315;97873;-73
2021/12/17 12:10:13;;;;;;;26.30;7.90;;;;;;;3.87;75.25;99853.88;103160;1315;111632;-70
2021/12/17 12:12:45;;;;;;;28.20;7.60;;;;;;;3.85;75.17;99856.57;102993;1315;98014;-70
2021/12/17 12:15:16;;;;;;;23.00;7.00;;;;;;;3.83;75.30;99853.66;102906;1315;107875;-72
2021/12/17 12:17:57;;;;;;;22.60;7.80;;;;;;;3.83;75.19;99856.48;102976;1316;98018;-70
2021/12/17 12:20:55;;;;;;;23.80;7.70;;;;;;;3.82;75.04;99859.67;103111;1315;97902;-70
2021/12/17 12:23:32;;;;;;;23.60;8.20;;;;;;;3.80;75.11;99860.26;103107;1317;110048;-70
2021/12/17 12:26:11;;;;;;;28.90;10.00;;;;;;;3.81;75.34;99866.71;103028;1315;97902;-72
2021/12/17 12:29:03;;;;;;;30.20;9.30;;;;;;;3.80;75.23;99866.06;103024;1315;107837;-73
2021/12/17 12:31:36;;;;;;;23.30;7.40;;;;;;;3.80;75.13;99867.11;103013;1315;97964;-70
2021/12/17 12:34:10;;;;;;;23.50;6.90;;;;;;;3.82;75.28;99863.72;103103;1316;97936;-76
2021/12/17 12:37:10;;;;;;;20.10;5.60;;;;;;;3.86;75.23;99866.73;103092;1316;111577;-70
2021/12/17 12:39:50;;;;;;;24.50;8.00;;;;;;;3.88;75.28;99864.91;103158;1315;97641;-70
2021/12/17 12:42:19;;;;;;;23.20;8.00;;;;;;;3.88;75.11;99861.06;103110;1319;107851;-69
2021/12/17 12:44:47;;;;;;;24.70;8.40;;;;;;;3.86;75.09;99863.58;103092;1316;98004;-71
2021/12/17 12:47:26;;;;;;;20.10;6.00;;;;;;;3.84;75.08;99855.73;103167;1315;97095;-70
2021/12/17 12:50:04;;;;;;;22.10;6.70;;;;;;;3.84;75.01;99850.84;103025;1315;110263;-69
2021/12/17 12:52:39;;;;;;;22.00;6.80;;;;;;;3.85;75.17;99851.67;102946;1316;97934;-69
2021/12/17 12:55:09;;;;;;;;;;;;;;;3.87;74.97;99850.57;102954;1315;107873;-70
2021/12/17 12:57:41;;;;;;;22.90;6.70;;;;;;;3.85;74.94;99850.45;102972;1315;97830;-69
2021/12/17 13:00:13;;;;;;;24.60;7.00;;;;;;;3.85;75.20;99850.27;102793;1317;97967;-70
2021/12/17 13:02:43;;;;;;;19.70;6.10;;;;;;;3.84;74.96;99849.42;102935;1316;111348;-70
2021/12/17 13:05:14;;;;;;;24.70;6.00;;;;;;;3.83;74.92;99848.75;102992;1316;98026;-71
2021/12/17 13:07:48;;;;;;;27.20;7.70;;;;;;;3.80;75.09;99848.50;102893;1315;107854;-70
2021/12/17 13:10:22;;;;;;;26.20;7.70;;;;;;;3.77;74.97;99850.02;102928;1316;96160;-71
2021/12/17 13:13:04;;;;;;;24.40;8.20;;;;;;;3.72;74.98;99848.39;102909;1315;95272;-72
2021/12/17 13:24:13;;;;;;;20.90;7.20;;;;;;;3.50;74.78;99845.39;102963;1315;98046;-73
2021/12/17 13:26:51;;;;;;;20.40;6.20;;;;;;;3.50;74.74;99848.04;103019;1315;95906;-71
2021/12/17 13:29:24;;;;;;;24.00;8.00;;;;;;;3.48;75.08;99843.54;103006;1314;111565;-73
2021/12/17 13:32:03;;;;;;;;;;;;;;;3.47;74.75;99849.34;103003;1318;97977;-73
2021/12/17 13:34:38;;;;;;;24.80;8.10;;;;;;;3.43;75.07;99850.35;102954;1316;107795;-71
2021/12/17 13:37:13;;;;;;;24.50;8.20;;;;;;;3.44;74.87;99848.92;102956;1315;98021;-71
2021/12/17 13:39:47;;;;;;;27.40;8.60;;;;;;;3.46;74.79;99850.60;103031;1315;98727;-72
2021/12/17 13:42:27;;;;;;;30.90;8.20;;;;;;;3.45;74.91;99847.84;102970;1315;111116;-70
2021/12/17 13:44:58;;;;;;;26.70;7.70;;;;;;;3.41;74.77;99842.17;102974;1316;97977;-70
2021/12/17 13:47:42;;;;;;;22.90;7.50;;;;;;;3.36;74.79;99838.27;102901;1316;106853;-71
2021/12/17 13:50:44;;;;;;;22.20;7.40;;;;;;;3.32;74.57;99838.75;102977;1315;98006;-71
2021/12/17 13:53:16;;;;;;;22.00;7.10;;;;;;;3.30;74.57;99834.60;103092;1315;98114;-72
2021/12/17 13:56:04;;;;;;;21.90;7.70;;;;;;;3.27;74.73;99837.17;102948;1315;111671;-70
2021/12/17 13:58:35;;;;;;;21.70;6.70;;;;;;;3.23;74.75;99840.81;103058;1315;97906;-69
2021/12/17 14:01:04;;;;;;;20.10;7.80;;;;;;;3.21;74.93;99841.91;103043;1315;107741;-70
2021/12/17 14:03:39;;;;;;;20.30;6.40;;;;;;;3.21;74.79;99841.38;102959;1316;97905;-70
2021/12/17 14:06:17;;;;;;;22.00;7.30;;;;;;;3.22;74.73;99843.27;102995;1315;97895;-69
2021/12/17 14:08:46;;;;;;;26.50;7.80;;;;;;;3.22;74.72;99842.91;102919;1316;111560;-70
2021/12/17 14:11:33;;;;;;;26.20;7.90;;;;;;;3.22;74.92;99839.93;102955;1311;97872;-70
2021/12/17 14:14:25;;;;;;;30.80;10.70;;;;;;;3.24;74.81;99842.88;102906;1318;109302;-70
2021/12/17 14:17:01;;;;;;;28.60;9.50;;;;;;;3.25;74.88;99837.92;102985;1315;97924;-70
2021/12/17 14:19:40;;;;;;;24.30;9.00;;;;;;;3.24;74.96;99837.75;103027;1315;97789;-69
2021/12/17 14:22:27;;;;;;;23.80;8.60;;;;;;;3.26;75.20;99842.98;102971;1315;111527;-69
2021/12/17 14:24:58;;;;;;;23.70;8.50;;;;;;;3.26;74.82;99848.92;102984;1315;97996;-69
2021/12/17 14:27:45;;;;;;;21.70;7.70;;;;;;;3.27;74.63;99850.83;103010;1315;107960;-71
2021/12/17 14:30:14;;;;;;;20.20;7.40;;;;;;;3.25;74.86;99854.91;103029;1316;97772;-70
2021/12/17 14:32:44;;;;;;;20.40;7.20;;;;;;;3.24;74.89;99858.27;102904;1316;98041;-71
2021/12/17 14:35:12;;;;;;;24.80;8.70;;;;;;;3.28;74.84;99861.30;102880;1315;111657;-73
2021/12/17 14:37:54;;;;;;;25.40;8.00;;;;;;;3.30;74.97;99864.24;102856;1313;97733;-72
2021/12/17 14:40:40;;;;;;;28.70;7.70;;;;;;;3.31;74.87;99866.52;102959;1315;110588;-71
2021/12/17 14:43:28;;;;;;;21.70;6.50;;;;;;;3.32;74.88;99867.00;103126;1315;97898;-74
2021/12/17 14:46:16;;;;;;;22.10;7.40;;;;;;;3.32;74.67;99865.77;103107;1315;97976;-71
2021/12/17 14:49:02;;;;;;;20.20;6.70;;;;;;;3.32;74.56;99864.17;103105;1315;111514;-72